Seiyo Maru — JMFG — position and weather

sailwx.info

Track history (hours):
 
Tides and Currents Weather Stations Pressure Air Temp Water Temp Dewpoint Dewpoint Depression Visibility Wind Speed Wind Dir Waves Ship Positions

Oceanographic research ship Seiyo Maru (Japan)

Detailed information on ship capabilities available from University of Delaware's Ocean Information Center.

Last reported at 2017-Nov-27 06:42 UTC. Time now 2017-Dec-13 13:15 UTC.
Position N 35°38' E 139°45'.
Warning: this ship's position is 16 days out of date.

Length 36 m; beam 7 m.

Type: Other ship. MMSI: 431431000.

Date/timePositionNaut miles runAvg speedWind from/ knotsBaromVisibWave heightAir tempDewpointWater temp
2017-Nov-27 06:42N 35°38' E 139°45'1 2.0
2017-Nov-27 06:26N 35°38' E 139°45'3 7.2
2017-Nov-27 06:00N 35°35' E 139°47'4 7.6
2017-Nov-27 05:26N 35°31' E 139°50'2 4.7
2017-Nov-27 05:00N 35°30' E 139°49'4 8.1
2017-Nov-27 04:30N 35°27' E 139°45'3 5.4
2017-Nov-27 04:00N 35°25' E 139°43'3 6.1
2017-Nov-27 03:29N 35°22' E 139°41'3 5.5
2017-Nov-27 02:58N 35°19' E 139°42'4 5.5
2017-Nov-27 02:16N 35°16' E 139°45'1 3.7
2017-Nov-27 02:00N 35°15' E 139°46'2 4.0
2017-Nov-27 01:29N 35°13' E 139°46'2 4.3
2017-Nov-27 00:57N 35°11' E 139°44'2 3.0
2017-Nov-27 00:12N 35°09' E 139°46'1 5.6
2017-Nov-26 23:59N 35°08' E 139°45'3 5.7
2017-Nov-26 23:25N 35°05' E 139°45'0 0.6
2017-Nov-26 23:00N 35°05' E 139°46'4 7.3
2017-Nov-26 22:30N 35°06' E 139°41'4 4.0
2017-Nov-26 21:26N 35°08' E 139°37'0 0.0
2017-Nov-26 20:56N 35°08' E 139°37'0 0.0
2017-Nov-26 20:26N 35°08' E 139°37'0 0.0
2017-Nov-26 12:32N 35°08' E 139°37'0 0.0
2017-Nov-26 11:26N 35°08' E 139°37'0 0.0
2017-Nov-26 08:26N 35°08' E 139°37'1 0.0
2017-Nov-25 06:50N 35°08' E 139°36'8 5.1
2017-Nov-25 05:16N 35°07' E 139°26'  
Track history (hours):
 
Tides and Currents Weather Stations Pressure Air Temp Water Temp Dewpoint Dewpoint Depression Visibility Wind Speed Wind Dir Waves Ship Positions

Oceanographic research ship Seiyo Maru (Japan)

Detailed information on ship capabilities available from University of Delaware's Ocean Information Center.

Last reported at 2017-Nov-27 06:42 UTC. Time now 2017-Dec-13 13:15 UTC.
Position N 35°38' E 139°45'.
Warning: this ship's position is 16 days out of date.

Length 36 m; beam 7 m.

Type: Other ship. MMSI: 431431000.

Date/timePositionNaut miles runAvg speedWind from/ knotsBaromVisibWave heightAir tempDewpointWater temp
2017-Nov-27 06:42N 35°38' E 139°45'1 2.0
2017-Nov-27 06:26N 35°38' E 139°45'3 7.2
2017-Nov-27 06:00N 35°35' E 139°47'4 7.6
2017-Nov-27 05:26N 35°31' E 139°50'2 4.7
2017-Nov-27 05:00N 35°30' E 139°49'4 8.1
2017-Nov-27 04:30N 35°27' E 139°45'3 5.4
2017-Nov-27 04:00N 35°25' E 139°43'3 6.1
2017-Nov-27 03:29N 35°22' E 139°41'3 5.5
2017-Nov-27 02:58N 35°19' E 139°42'4 5.5
2017-Nov-27 02:16N 35°16' E 139°45'1 3.7
2017-Nov-27 02:00N 35°15' E 139°46'2 4.0
2017-Nov-27 01:29N 35°13' E 139°46'2 4.3
2017-Nov-27 00:57N 35°11' E 139°44'2 3.0
2017-Nov-27 00:12N 35°09' E 139°46'1 5.6
2017-Nov-26 23:59N 35°08' E 139°45'3 5.7
2017-Nov-26 23:25N 35°05' E 139°45'0 0.6
2017-Nov-26 23:00N 35°05' E 139°46'4 7.3
2017-Nov-26 22:30N 35°06' E 139°41'4 4.0
2017-Nov-26 21:26N 35°08' E 139°37'0 0.0
2017-Nov-26 20:56N 35°08' E 139°37'0 0.0
2017-Nov-26 20:26N 35°08' E 139°37'0 0.0
2017-Nov-26 12:32N 35°08' E 139°37'0 0.0
2017-Nov-26 11:26N 35°08' E 139°37'0 0.0
2017-Nov-26 08:26N 35°08' E 139°37'1 0.0
2017-Nov-25 06:50N 35°08' E 139°36'8 5.1
2017-Nov-25 05:16N 35°07' E 139°26'  

Dump ship's entire track history